Time;durP1;ratioP1;P1;durP2;ratioP2;P2;SDS_P1;SDS_P2;PMS_P1;PMS_P2;Temp;Humidity;BMP_temperature;BMP_pressure;BME280_temperature;BME280_humidity;BME280_pressure;Samples;Min_cycle;Max_cycle;Signal;HPM_P1;HPM_P2
2022/03/03 00:00:11;;;;;;;;;;;;;;;28.94;67.56;101060.44;4977500;28;69821;-37
2022/03/03 00:02:42;;;;;;;;;;;;;;;29.00;67.17;101066.88;4974250;28;66128;-37
2022/03/03 00:05:12;;;;;;;;;;;;;;;29.08;67.16;101076.72;4975876;28;70289;-38
2022/03/03 00:07:42;;;;;;;;;;;;;;;29.13;67.25;101082.34;4975479;28;66322;-37
2022/03/03 00:10:12;;;;;;;;;;;;;;;29.20;66.94;101082.34;4977826;28;70547;-38
2022/03/03 00:12:42;;;;;;;;;;;;;;;29.29;67.02;101087.38;4975409;28;66165;-39
2022/03/03 00:15:11;;;;;;;;;;;;;;;29.32;66.63;101089.66;4978221;28;70678;-38
2022/03/03 00:17:41;;;;;;;;;;;;;;;29.31;64.96;101096.13;4981000;28;66061;-38
2022/03/03 00:20:11;;;;;;;;;;;;;;;29.33;65.83;101104.81;4976860;28;70165;-37
2022/03/03 00:22:41;;;;;;;;;;;;;;;29.39;64.83;101106.75;4971102;28;67003;-38
2022/03/03 00:25:11;;;;;;;;;;;;;;;29.45;65.12;101106.94;4964771;28;70541;-39
2022/03/03 00:27:40;;;;;;;;;;;;;;;29.54;64.46;101111.13;4976683;28;66409;-42
2022/03/03 00:30:10;;;;;;;;;;;;;;;29.59;64.34;101116.75;4974843;28;68832;-39
2022/03/03 00:32:40;;;;;;;;;;;;;;;29.64;64.83;101111.56;4989434;28;65638;-38
2022/03/03 00:35:11;;;;;;;;;;;;;;;29.68;65.34;101120.94;4984258;27;69618;-38
2022/03/03 00:37:41;;;;;;;;;;;;;;;29.72;65.17;101122.19;4990781;27;65635;-38
2022/03/03 00:40:10;;;;;;;;;;;;;;;29.77;65.39;101126.97;4978275;28;69864;-38
2022/03/03 00:42:40;;;;;;;;;;;;;;;29.80;64.67;101123.84;4977381;28;66935;-37
2022/03/03 00:45:10;;;;;;;;;;;;;;;29.82;64.47;101128.03;4974379;28;70484;-36
2022/03/03 00:47:39;;;;;;;;;;;;;;;29.87;63.69;101130.09;4975029;28;66299;-38
2022/03/03 00:50:09;;;;;;;;;;;;;;;29.89;63.95;101133.41;4983879;28;69274;-38
2022/03/03 00:52:39;;;;;;;;;;;;;;;29.93;63.26;101136.56;4981907;28;66342;-38
2022/03/03 00:55:09;;;;;;;;;;;;;;;29.95;63.24;101137.16;4978007;27;69516;-38
2022/03/03 00:57:39;;;;;;;;;;;;;;;29.97;62.86;101135.91;4976931;27;67594;-38
2022/03/03 01:00:09;;;;;;;;;;;;;;;30.00;62.96;101140.91;4975856;28;70751;-38
2022/03/03 01:02:39;;;;;;;;;;;;;;;30.02;61.96;101138.00;4976526;28;65527;-37
2022/03/03 01:05:09;;;;;;;;;;;;;;;30.04;62.14;101142.16;4975796;28;69381;-37
2022/03/03 01:07:39;;;;;;;;;;;;;;;30.06;62.15;101144.66;4976852;28;66023;-37
2022/03/03 01:10:10;;;;;;;;;;;;;;;30.09;61.73;101149.66;4961929;28;69899;-38
2022/03/03 01:12:40;;;;;;;;;;;;;;;30.11;61.77;101152.97;4963864;28;66430;-37
2022/03/03 01:15:11;;;;;;;;;;;;;;;30.12;61.04;101149.25;4962826;28;70208;-37
2022/03/03 01:17:40;;;;;;;;;;;;;;;30.15;61.13;101158.81;4979754;27;66061;-38
2022/03/03 01:20:11;;;;;;;;;;;;;;;30.17;60.53;101157.59;4979137;27;69852;-38
2022/03/03 01:22:40;;;;;;;;;;;;;;;30.06;60.19;101139.25;4978156;28;66818;-38
2022/03/03 01:25:10;;;;;;;;;;;;;;;30.20;59.99;101157.16;4976923;28;69877;-38
2022/03/03 01:27:40;;;;;;;;;;;;;;;30.23;59.95;101162.19;4979101;28;66593;-37
2022/03/03 01:30:10;;;;;;;;;;;;;;;30.24;60.34;101166.53;4978020;28;70772;-38
2022/03/03 01:32:41;;;;;;;;;;;;;;;30.26;59.80;101169.06;4980082;28;66917;-42
2022/03/03 01:35:11;;;;;;;;;;;;;;;30.28;59.63;101170.50;4976366;28;69645;-37
2022/03/03 01:37:41;;;;;;;;;;;;;;;30.30;59.71;101172.16;4979588;28;65778;-39
2022/03/03 01:40:11;;;;;;;;;;;;;;;30.31;59.13;101168.41;4976202;28;69514;-38
2022/03/03 01:42:41;;;;;;;;;;;;;;;30.33;58.91;101169.03;4977543;28;66613;-39
2022/03/03 01:45:11;;;;;;;;;;;;;;;30.35;59.41;101172.38;4975849;28;69935;-38
2022/03/03 01:47:41;;;;;;;;;;;;;;;30.37;58.62;101170.25;4979323;28;66200;-42
2022/03/03 01:50:11;;;;;;;;;;;;;;;30.39;58.89;101181.72;4976205;28;70848;-37
2022/03/03 01:52:41;;;;;;;;;;;;;;;30.39;58.35;101168.19;4992682;27;67201;-39
2022/03/03 01:55:12;;;;;;;;;;;;;;;30.41;58.64;101179.63;5041474;28;69481;-38
2022/03/03 01:57:41;;;;;;;;;;;;;;;30.43;58.34;101177.56;4970535;28;66101;-37
2022/03/03 02:00:12;;;;;;;;;;;;;;;30.45;58.15;101175.47;4996402;27;70019;-38
2022/03/03 02:02:42;;;;;;;;;;;;;;;30.47;58.14;101176.09;4983997;28;66826;-38
2022/03/03 02:05:12;;;;;;;;;;;;;;;30.41;58.28;101164.22;4976827;28;71167;-38
2022/03/03 02:07:42;;;;;;;;;;;;;;;30.49;57.73;101176.72;4978661;28;66557;-38
2022/03/03 02:10:12;;;;;;;;;;;;;;;30.50;57.50;101178.38;4991055;28;70407;-38
2022/03/03 02:12:42;;;;;;;;;;;;;;;30.52;57.45;101176.28;4957838;28;65402;-37
2022/03/03 02:15:19;;;;;;;;;;;;;;;30.54;57.29;101179.63;4973580;28;70367;-38
2022/03/03 02:17:49;;;;;;;;;;;;;;;30.55;57.53;101181.28;4978543;28;66555;-38
2022/03/03 02:20:23;;;;;;;;;;;;;;;30.58;57.20;101191.69;4962255;28;70287;-37
2022/03/03 02:22:54;;;;;;;;;;;;;;;30.60;57.38;101189.63;4978101;28;66193;-37
2022/03/03 02:25:25;;;;;;;;;;;;;;;30.61;56.93;101195.84;4974206;28;69956;-38
2022/03/03 02:27:55;;;;;;;;;;;;;;;30.63;57.30;101202.72;4980044;28;65592;-37
2022/03/03 02:30:26;;;;;;;;;;;;;;;30.64;56.45;101196.25;4979000;28;69710;-38
2022/03/03 02:32:56;;;;;;;;;;;;;;;30.65;56.79;101197.94;4964855;28;66805;-38
2022/03/03 02:35:27;;;;;;;;;;;;;;;30.68;56.87;101200.22;4980511;27;70413;-38
2022/03/03 02:37:57;;;;;;;;;;;;;;;30.71;56.10;101201.69;4965725;28;65126;-38
2022/03/03 02:40:27;;;;;;;;;;;;;;;30.72;56.15;101201.44;4964732;28;70192;-37
2022/03/03 02:42:57;;;;;;;;;;;;;;;30.73;56.19;101200.41;4969344;28;65329;-38
2022/03/03 02:45:27;;;;;;;;;;;;;;;30.76;56.30;101198.31;4988254;27;69241;-37
2022/03/03 02:47:57;;;;;;;;;;;;;;;30.79;56.05;101197.91;4958746;28;65969;-38
2022/03/03 02:50:28;;;;;;;;;;;;;;;30.79;56.27;101198.75;4971335;28;69813;-38
2022/03/03 02:53:01;;;;;;;;;;;;;;;30.82;55.64;101192.09;4991962;28;66454;-37
2022/03/03 02:55:31;;;;;;;;;;;;;;;30.84;55.90;101201.69;4957118;28;69946;-39
2022/03/03 02:58:01;;;;;;;;;;;;;;;30.87;55.67;101189.56;4950650;28;65756;-38
2022/03/03 03:00:38;;;;;;;;;;;;;;;30.89;55.44;101195.59;4964276;28;70723;-38
2022/03/03 03:03:08;;;;;;;;;;;;;;;30.91;55.85;101190.81;4965014;28;66458;-38
2022/03/03 03:05:38;;;;;;;;;;;;;;;30.93;55.32;101199.56;4957622;28;69911;-38
2022/03/03 03:08:09;;;;;;;;;;;;;;;30.94;55.68;101195.81;4970484;28;66706;-39
2022/03/03 03:10:40;;;;;;;;;;;;;;;30.97;55.44;101194.53;4959828;28;69725;-38
2022/03/03 03:13:12;;;;;;;;;;;;;;;30.98;55.31;101190.78;4958632;28;66964;-38
2022/03/03 03:15:45;;;;;;;;;;;;;;;31.00;55.38;101192.22;4989526;27;69014;-38
2022/03/03 03:18:17;;;;;;;;;;;;;;;31.02;54.58;101192.88;4979615;28;66720;-38
2022/03/03 03:20:48;;;;;;;;;;;;;;;31.05;55.09;101187.00;4983543;28;69362;-38
2022/03/03 03:23:18;;;;;;;;;;;;;;;31.06;55.10;101180.53;4985405;28;65588;-37
2022/03/03 03:25:48;;;;;;;;;;;;;;;31.09;54.89;101180.13;4978415;28;69243;-38
2022/03/03 03:28:19;;;;;;;;;;;;;;;31.11;55.00;101174.47;4978577;28;66596;-37
2022/03/03 03:30:49;;;;;;;;;;;;;;;31.14;54.60;101174.06;4978080;28;69857;-38
2022/03/03 03:33:19;;;;;;;;;;;;;;;31.15;54.79;101165.72;4978706;28;65387;-38
2022/03/03 03:35:49;;;;;;;;;;;;;;;31.19;54.60;101165.28;4993090;27;69759;-38
2022/03/03 03:38:19;;;;;;;;;;;;;;;31.21;54.39;101161.31;4977960;28;65985;-39
2022/03/03 03:40:50;;;;;;;;;;;;;;;31.22;53.97;101154.00;4990259;27;69209;-38
2022/03/03 03:43:20;;;;;;;;;;;;;;;31.12;54.27;101121.94;4968595;28;65752;-39
2022/03/03 03:45:49;;;;;;;;;;;;;;;31.27;54.15;101151.50;4977442;28;70602;-39
2022/03/03 03:48:19;;;;;;;;;;;;;;;31.29;53.97;101147.50;4983555;27;66341;-37
2022/03/03 03:50:49;;;;;;;;;;;;;;;31.19;54.30;101121.94;4965881;28;70395;-38
2022/03/03 03:53:19;;;;;;;;;;;;;;;31.34;53.90;101133.28;4974857;28;66824;-39
2022/03/03 03:55:49;;;;;;;;;;;;;;;31.35;53.94;101124.94;4960483;28;70166;-37
2022/03/03 03:58:19;;;;;;;;;;;;;;;31.14;53.52;101081.91;4978800;27;66679;-38
2022/03/03 04:00:48;;;;;;;;;;;;;;;31.40;53.87;101124.34;4985152;28;69973;-38
2022/03/03 04:03:18;;;;;;;;;;;;;;;31.43;54.09;101121.19;4968128;27;65510;-38
2022/03/03 04:05:48;;;;;;;;;;;;;;;31.44;53.40;101120.13;4956581;28;69121;-38
2022/03/03 04:08:18;;;;;;;;;;;;;;;31.46;53.94;101107.19;4971984;28;66230;-37
2022/03/03 04:10:48;;;;;;;;;;;;;;;31.49;53.69;101106.75;4969883;28;70201;-39
2022/03/03 04:13:18;;;;;;;;;;;;;;;31.51;53.53;101104.66;4971265;28;66994;-38
2022/03/03 04:15:48;;;;;;;;;;;;;;;31.53;53.30;101097.13;4959046;27;69754;-38
2022/03/03 04:18:17;;;;;;;;;;;;;;;31.55;53.11;101089.59;4957995;28;66738;-38
2022/03/03 04:20:47;;;;;;;;;;;;;;;31.57;53.23;101082.09;4958119;28;69334;-38
2022/03/03 04:23:19;;;;;;;;;;;;;;;31.59;53.09;101085.41;4960104;28;66741;-37
2022/03/03 04:25:49;;;;;;;;;;;;;;;31.61;53.05;101077.88;4963032;28;70729;-38
2022/03/03 04:28:18;;;;;;;;;;;;;;;31.64;53.22;101070.34;4976958;28;67073;-37
2022/03/03 04:30:48;;;;;;;;;;;;;;;31.65;53.07;101063.88;4979689;27;70309;-38
2022/03/03 04:33:18;;;;;;;;;;;;;;;31.68;52.90;101055.28;4966830;28;67013;-38
2022/03/03 04:35:52;;;;;;;;;;;;;;;31.69;52.97;101052.38;4973637;28;70562;-38
2022/03/03 04:38:21;;;;;;;;;;;;;;;31.71;52.64;101044.84;4976129;28;65453;-38
2022/03/03 04:40:51;;;;;;;;;;;;;;;31.72;52.85;101045.66;4968432;28;69251;-38
2022/03/03 04:43:22;;;;;;;;;;;;;;;31.72;52.70;101041.06;4977152;27;65604;-38
2022/03/03 04:45:52;;;;;;;;;;;;;;;31.72;52.96;101035.66;4960002;28;70363;-39
2022/03/03 04:48:29;;;;;;;;;;;;;;;31.73;53.13;101031.03;4977825;28;66269;-38
2022/03/03 04:50:59;;;;;;;;;;;;;;;31.72;52.96;101029.41;4976413;28;68952;-39
2022/03/03 04:53:30;;;;;;;;;;;;;;;31.71;53.07;101008.75;4977255;28;65551;-37
2022/03/03 04:55:59;;;;;;;;;;;;;;;31.72;53.14;101010.41;4977805;28;70045;-37
2022/03/03 04:58:29;;;;;;;;;;;;;;;31.72;53.39;101019.38;4975874;28;67092;-38
2022/03/03 05:00:59;;;;;;;;;;;;;;;31.72;53.08;101002.28;4976339;28;70141;-38
2022/03/03 05:03:29;;;;;;;;;;;;;;;31.70;53.56;100993.53;4976725;28;66279;-38
2022/03/03 05:05:59;;;;;;;;;;;;;;;31.73;52.89;100987.66;4984058;28;70078;-38
2022/03/03 05:08:29;;;;;;;;;;;;;;;31.74;53.05;100994.75;4981356;28;67183;-38
2022/03/03 05:10:59;;;;;;;;;;;;;;;31.75;52.92;100990.97;4977522;28;70128;-38
2022/03/03 05:13:29;;;;;;;;;;;;;;;31.76;52.83;100984.50;4980002;28;66257;-37
2022/03/03 05:15:58;;;;;;;;;;;;;;;31.77;52.98;100978.03;5048773;27;70047;-38
2022/03/03 05:18:28;;;;;;;;;;;;;;;31.77;53.08;100978.84;4981117;27;66441;-38
2022/03/03 05:20:58;;;;;;;;;;;;;;;31.79;53.16;100965.09;4975440;28;69859;-39
2022/03/03 05:23:28;;;;;;;;;;;;;;;31.80;53.07;100956.69;4974980;28;66368;-38
2022/03/03 05:25:58;;;;;;;;;;;;;;;31.81;53.32;100958.34;4975659;28;69307;-39
2022/03/03 05:28:27;;;;;;;;;;;;;;;31.82;53.17;100954.59;4986529;28;65632;-38
2022/03/03 05:30:57;;;;;;;;;;;;;;;31.85;52.80;100947.91;4991015;28;69869;-38
2022/03/03 05:33:27;;;;;;;;;;;;;;;31.86;52.50;100933.28;4980194;28;66614;-39
2022/03/03 05:36:01;;;;;;;;;;;;;;;31.88;52.72;100924.91;4964219;28;70685;-39
2022/03/03 05:38:32;;;;;;;;;;;;;;;31.89;52.74;100927.38;5033624;28;67117;-38
2022/03/03 05:41:03;;;;;;;;;;;;;;;31.91;52.85;100924.47;4975495;27;69876;-38
2022/03/03 05:43:35;;;;;;;;;;;;;;;31.93;52.58;100917.78;4962515;28;66714;-39
2022/03/03 05:46:05;;;;;;;;;;;;;;;31.95;52.46;100915.66;4974877;28;68948;-38
2022/03/03 05:48:35;;;;;;;;;;;;;;;31.96;52.61;100914.63;4978305;28;66452;-38
2022/03/03 05:51:05;;;;;;;;;;;;;;;31.98;52.22;100907.09;4979464;28;69884;-38
2022/03/03 05:53:34;;;;;;;;;;;;;;;32.00;52.45;100904.97;4979148;28;66797;-37
2022/03/03 05:56:07;;;;;;;;;;;;;;;32.02;52.10;100900.13;4957428;28;70022;-38
2022/03/03 05:58:47;;;;;;;;;;;;;;;32.05;52.17;100899.69;4978306;28;66384;-38
2022/03/03 06:01:17;;;;;;;;;;;;;;;32.07;52.20;100888.63;4979063;28;69277;-38
2022/03/03 06:03:50;;;;;;;;;;;;;;;32.10;51.89;100887.34;4979607;28;66364;-39
2022/03/03 06:06:22;;;;;;;;;;;;;;;32.10;52.20;100879.19;4979285;28;70231;-40
2022/03/03 06:09:05;;;;;;;;;;;;;;;32.12;51.88;100882.47;4977407;28;65691;-39
2022/03/03 06:11:40;;;;;;;;;;;;;;;32.14;52.16;100880.38;4980074;28;70607;-39
2022/03/03 06:14:11;;;;;;;;;;;;;;;32.15;52.01;100871.16;4977239;28;66397;-43
2022/03/03 06:16:42;;;;;;;;;;;;;;;32.16;52.17;100872.84;4964824;28;69905;-38
2022/03/03 06:19:12;;;;;;;;;;;;;;;32.18;52.09;100862.56;4967521;27;65891;-39
2022/03/03 06:21:43;;;;;;;;;;;;;;;32.20;52.04;100863.16;4990161;28;70001;-38
2022/03/03 06:24:13;;;;;;;;;;;;;;;32.22;51.59;100866.50;4977564;27;66597;-38
2022/03/03 06:26:43;;;;;;;;;;;;;;;32.23;51.72;100862.69;4975287;28;69294;-38
2022/03/03 06:29:13;;;;;;;;;;;;;;;32.24;51.63;100848.09;4977905;28;66523;-38
2022/03/03 06:31:42;;;;;;;;;;;;;;;32.26;51.35;100837.81;4978405;28;70098;-37
2022/03/03 06:34:12;;;;;;;;;;;;;;;32.27;51.63;100839.50;4960931;28;66127;-39
2022/03/03 06:36:42;;;;;;;;;;;;;;;32.30;52.02;100840.91;4959363;28;69305;-38
2022/03/03 06:39:12;;;;;;;;;;;;;;;32.30;51.86;100830.88;4974372;28;66507;-39
2022/03/03 06:41:42;;;;;;;;;;;;;;;32.32;51.55;100817.91;4966930;28;70270;-38
2022/03/03 06:44:12;;;;;;;;;;;;;;;32.33;51.66;100819.56;4977219;28;65527;-38
2022/03/03 06:46:42;;;;;;;;;;;;;;;32.34;51.77;100815.78;4973145;27;69981;-39
2022/03/03 06:49:12;;;;;;;;;;;;;;;32.34;51.57;100804.91;4959929;28;66269;-38
2022/03/03 06:51:44;;;;;;;;;;;;;;;32.36;51.65;100810.94;4958547;28;69560;-37
2022/03/03 06:54:15;;;;;;;;;;;;;;;32.37;51.26;100793.59;4972015;28;66112;-38
2022/03/03 06:56:50;;;;;;;;;;;;;;;32.40;51.51;100795.88;4978482;28;70877;-39
2022/03/03 06:59:21;;;;;;;;;;;;;;;32.40;51.73;100787.72;4967001;28;66431;-37
2022/03/03 07:01:52;;;;;;;;;;;;;;;32.40;51.34;100782.28;4975077;28;70123;-38
2022/03/03 07:04:23;;;;;;;;;;;;;;;32.41;51.46;100781.22;4969549;28;66823;-38
2022/03/03 07:06:53;;;;;;;;;;;;;;;32.42;51.55;100769.28;4961054;28;70204;-38
2022/03/03 07:09:22;;;;;;;;;;;;;;;32.44;51.08;100767.16;4969578;28;66281;-37
2022/03/03 07:11:52;;;;;;;;;;;;;;;32.45;51.47;100760.66;4975741;28;70652;-38
2022/03/03 07:14:22;;;;;;;;;;;;;;;32.47;51.37;100750.44;4995413;27;66775;-37
2022/03/03 07:16:52;;;;;;;;;;;;;;;32.49;51.33;100742.06;4980918;27;69912;-39
2022/03/03 07:19:28;;;;;;;;;;;;;;;32.51;51.36;100739.09;4996251;28;66664;-39
2022/03/03 07:22:12;;;;;;;;;;;;;;;32.53;50.89;100737.00;4993689;27;69905;-39
2022/03/03 07:24:44;;;;;;;;;;;;;;;32.56;51.11;100726.47;4976553;28;66239;-38
2022/03/03 07:27:23;;;;;;;;;;;;;;;32.60;50.96;100721.44;4995954;28;69765;-39
2022/03/03 07:29:59;;;;;;;;;;;;;;;32.62;51.25;100724.72;4986749;28;66703;-38
2022/03/03 07:32:37;;;;;;;;;;;;;;;32.66;51.01;100712.31;4993725;27;69702;-39
2022/03/03 07:35:12;;;;;;;;;;;;;;;32.69;51.03;100715.38;4996505;27;66039;-38
2022/03/03 07:37:53;;;;;;;;;;;;;;;32.70;50.71;100699.91;4980274;28;70737;-39
2022/03/03 07:40:26;;;;;;;;;;;;;;;32.76;51.00;100698.97;4977341;28;66753;-38
2022/03/03 07:42:57;;;;;;;;;;;;;;;32.80;50.79;100694.72;4959364;28;70431;-38
2022/03/03 07:45:29;;;;;;;;;;;;;;;32.83;50.72;100685.28;4978215;28;66218;-38
2022/03/03 07:47:59;;;;;;;;;;;;;;;32.86;50.66;100677.47;4978751;28;69882;-38
2022/03/03 07:50:28;;;;;;;;;;;;;;;32.90;50.54;100677.78;4977823;28;65517;-38
2022/03/03 07:52:58;;;;;;;;;;;;;;;32.92;50.56;100671.06;4973763;28;70745;-39
2022/03/03 07:55:29;;;;;;;;;;;;;;;32.97;50.44;100672.25;4970938;28;65783;-38
2022/03/03 07:58:02;;;;;;;;;;;;;;;33.02;50.38;100669.69;4969211;28;69478;-38
2022/03/03 08:00:33;;;;;;;;;;;;;;;33.05;50.54;100663.75;4957875;28;65529;-39
2022/03/03 08:03:08;;;;;;;;;;;;;;;33.07;50.44;100662.47;4970731;28;69811;-39
2022/03/03 08:05:40;;;;;;;;;;;;;;;33.10;50.29;100666.59;4963982;28;66569;-38
2022/03/03 08:08:12;;;;;;;;;;;;;;;33.13;50.26;100666.09;4978413;27;70132;-38
2022/03/03 08:10:45;;;;;;;;;;;;;;;33.18;50.32;100666.19;4990928;27;66600;-38
2022/03/03 08:13:16;;;;;;;;;;;;;;;33.22;50.23;100669.25;4989083;28;70169;-38
2022/03/03 08:15:46;;;;;;;;;;;;;;;33.25;50.16;100666.06;4978126;28;66481;-38
2022/03/03 08:18:17;;;;;;;;;;;;;;;33.28;50.12;100663.69;4978372;28;70309;-38
2022/03/03 08:20:48;;;;;;;;;;;;;;;33.32;50.25;100664.84;4976796;28;66713;-38
2022/03/03 08:23:19;;;;;;;;;;;;;;;33.34;49.95;100668.13;4979041;28;69748;-38
2022/03/03 08:25:48;;;;;;;;;;;;;;;33.37;49.95;100673.09;4978226;28;66388;-39
2022/03/03 08:28:22;;;;;;;;;;;;;;;33.42;49.76;100668.84;5032675;28;69844;-38
2022/03/03 08:30:58;;;;;;;;;;;;;;;33.47;49.99;100671.66;4989647;28;65568;-38
2022/03/03 08:33:31;;;;;;;;;;;;;;;33.50;49.95;100671.16;4979171;27;69926;-38
2022/03/03 08:36:02;;;;;;;;;;;;;;;33.54;49.89;100672.34;4982218;28;66660;-39
2022/03/03 08:38:36;;;;;;;;;;;;;;;33.55;49.71;100663.94;4976322;28;69732;-39
2022/03/03 08:41:05;;;;;;;;;;;;;;;33.58;49.55;100663.47;4960932;28;66423;-41
2022/03/03 08:43:40;;;;;;;;;;;;;;;33.62;49.73;100663.78;4976371;28;70247;-39
2022/03/03 08:46:12;;;;;;;;;;;;;;;33.65;49.49;100662.47;4970883;28;66560;-38
2022/03/03 08:48:42;;;;;;;;;;;;;;;33.66;49.41;100664.97;4969090;28;69978;-38
2022/03/03 08:51:14;;;;;;;;;;;;;;;33.70;49.67;100660.69;4977644;28;66672;-39
2022/03/03 08:53:44;;;;;;;;;;;;;;;33.73;49.24;100660.19;4975795;28;70720;-39
2022/03/03 08:56:14;;;;;;;;;;;;;;;33.77;49.25;100661.34;4977951;28;66532;-38
2022/03/03 08:58:44;;;;;;;;;;;;;;;33.83;49.35;100658.72;4976674;28;70605;-37
2022/03/03 09:01:14;;;;;;;;;;;;;;;33.84;49.04;100654.94;4975756;28;67375;-38
2022/03/03 09:03:44;;;;;;;;;;;;;;;33.89;49.00;100663.19;4975968;28;69948;-38
2022/03/03 09:06:15;;;;;;;;;;;;;;;33.91;49.12;100661.06;4978009;28;65657;-39
2022/03/03 09:08:45;;;;;;;;;;;;;;;33.93;49.22;100659.69;4980972;27;70820;-38
2022/03/03 09:11:18;;;;;;;;;;;;;;;33.95;49.10;100667.63;4962407;28;65192;-39
2022/03/03 09:13:48;;;;;;;;;;;;;;;33.97;48.92;100660.88;4980101;28;70227;-38
2022/03/03 09:16:18;;;;;;;;;;;;;;;34.00;49.28;100660.38;4988846;28;66988;-39
2022/03/03 09:18:47;;;;;;;;;;;;;;;34.02;49.07;100662.88;4984222;28;70367;-39
2022/03/03 09:21:17;;;;;;;;;;;;;;;34.03;49.00;100664.50;4982159;28;66317;-39
2022/03/03 09:23:47;;;;;;;;;;;;;;;34.06;49.21;100666.75;4982033;28;69084;-38
2022/03/03 09:26:17;;;;;;;;;;;;;;;34.08;49.09;100669.25;4969890;28;66975;-38
2022/03/03 09:28:47;;;;;;;;;;;;;;;34.09;48.98;100671.72;4982108;28;70292;-38
2022/03/03 09:31:16;;;;;;;;;;;;;;;34.12;49.23;100679.38;4978983;28;66847;-39
2022/03/03 09:33:46;;;;;;;;;;;;;;;34.14;48.96;100676.41;4980567;27;70180;-39
2022/03/03 09:36:18;;;;;;;;;;;;;;;34.16;49.09;100680.53;4981434;28;66582;-39
2022/03/03 09:38:47;;;;;;;;;;;;;;;34.16;49.08;100690.63;4979843;28;70223;-38
2022/03/03 09:41:18;;;;;;;;;;;;;;;34.18;48.92;100686.53;4981442;28;66659;-38
2022/03/03 09:43:48;;;;;;;;;;;;;;;34.18;48.90;100683.81;4981720;28;69963;-39
2022/03/03 09:46:17;;;;;;;;;;;;;;;34.20;48.93;100686.31;4990636;28;66367;-38
2022/03/03 09:48:47;;;;;;;;;;;;;;;34.19;48.92;100690.94;4973012;28;69981;-39
2022/03/03 09:51:17;;;;;;;;;;;;;;;34.21;49.14;100682.50;4983905;28;65326;-39
2022/03/03 09:53:51;;;;;;;;;;;;;;;34.21;49.03;100687.94;4981042;28;69642;-39
2022/03/03 09:56:20;;;;;;;;;;;;;;;34.20;48.97;100692.56;4979188;28;66477;-39
2022/03/03 09:58:51;;;;;;;;;;;;;;;34.21;48.97;100690.69;4966152;28;70053;-38
2022/03/03 10:01:21;;;;;;;;;;;;;;;34.20;49.09;100687.13;4963653;28;66838;-39
2022/03/03 10:03:51;;;;;;;;;;;;;;;34.18;48.92;100689.28;4973637;28;69329;-40
2022/03/03 10:06:23;;;;;;;;;;;;;;;34.19;49.03;100685.50;4971854;28;66175;-39
2022/03/03 10:08:53;;;;;;;;;;;;;;;34.18;49.20;100683.81;4978643;28;69859;-39
2022/03/03 10:11:23;;;;;;;;;;;;;;;34.18;49.11;100688.44;4978882;28;66643;-39
2022/03/03 10:13:53;;;;;;;;;;;;;;;34.17;49.04;100703.97;4982942;28;69964;-40
2022/03/03 10:16:29;;;;;;;;;;;;;;;34.18;49.03;100693.91;4999348;27;66716;-38
2022/03/03 10:19:01;;;;;;;;;;;;;;;34.17;49.17;100695.78;4981501;28;70663;-39
2022/03/03 10:21:32;;;;;;;;;;;;;;;34.15;49.12;100695.22;4977894;28;66220;-39
2022/03/03 10:24:19;;;;;;;;;;;;;;;34.14;49.05;100700.91;4982234;28;69187;-38
2022/03/03 10:26:57;;;;;;;;;;;;;;;34.11;49.41;100704.97;4972364;28;65944;-38
2022/03/03 10:29:30;;;;;;;;;;;;;;;34.10;49.23;100705.19;4968894;28;63701;-38
2022/03/03 10:32:02;;;;;;;;;;;;;;;34.12;49.05;100701.16;4976852;28;66378;-39
2022/03/03 10:34:33;;;;;;;;;;;;;;;34.05;50.16;100711.41;4975007;28;69039;-39
2022/03/03 10:37:20;;;;;;;;;;;;;;;33.91;51.34;100707.31;4974463;28;65439;-40
2022/03/03 10:39:57;;;;;;;;;;;;;;;33.78;50.69;100706.53;4976262;28;71002;-39
2022/03/03 10:42:31;;;;;;;;;;;;;;;33.70;50.33;100720.53;4973284;28;65569;-39
2022/03/03 10:45:05;;;;;;;;;;;;;;;33.61;50.24;100722.00;4974557;28;69923;-40
2022/03/03 10:47:43;;;;;;;;;;;;;;;33.57;49.83;100726.25;4977386;28;66018;-38
2022/03/03 10:50:12;;;;;;;;;;;;;;;33.50;51.00;100726.38;4984702;28;70264;-39
2022/03/03 10:52:44;;;;;;;;;;;;;;;33.45;51.10;100722.72;4994320;27;66593;-39
2022/03/03 10:55:15;;;;;;;;;;;;;;;33.36;50.93;100725.00;4982498;28;68888;-39
2022/03/03 10:57:46;;;;;;;;;;;;;;;33.32;51.12;100730.09;4974801;27;66020;-40
2022/03/03 11:00:16;;;;;;;;;;;;;;;33.31;51.02;100724.91;4959687;28;69924;-39
2022/03/03 11:02:50;;;;;;;;;;;;;;;33.01;51.17;100690.56;4970058;28;66861;-38
2022/03/03 11:05:22;;;;;;;;;;;;;;;33.25;51.44;100725.88;4976658;28;70552;-39
2022/03/03 11:07:56;;;;;;;;;;;;;;;33.22;51.40;100729.88;4978916;28;66738;-39
2022/03/03 11:10:29;;;;;;;;;;;;;;;33.14;51.00;100738.41;4979317;28;70788;-39
2022/03/03 11:12:59;;;;;;;;;;;;;;;33.11;50.78;100744.31;4977658;28;67110;-39
2022/03/03 11:15:28;;;;;;;;;;;;;;;33.05;50.49;100728.97;4978332;28;68720;-39
2022/03/03 11:17:58;;;;;;;;;;;;;;;33.02;50.61;100740.34;4967610;28;66173;-39
2022/03/03 11:20:28;;;;;;;;;;;;;;;33.00;51.01;100737.03;4971604;28;69491;-38
2022/03/03 11:23:01;;;;;;;;;;;;;;;32.98;51.12;100745.38;4957262;28;65438;-39
2022/03/03 11:25:33;;;;;;;;;;;;;;;32.94;51.05;100746.91;4989195;28;70279;-40
2022/03/03 11:28:07;;;;;;;;;;;;;;;32.92;50.97;100744.41;4988671;28;66311;-37
2022/03/03 11:30:37;;;;;;;;;;;;;;;32.89;50.94;100753.06;4963245;28;70755;-40
2022/03/03 11:33:26;;;;;;;;;;;;;;;32.90;50.74;100754.72;4976096;28;66235;-39
2022/03/03 11:35:59;;;;;;;;;;;;;;;32.89;50.68;100763.91;4958022;28;69228;-38
2022/03/03 11:38:51;;;;;;;;;;;;;;;32.87;50.73;100770.66;4976916;28;66738;-41
2022/03/03 11:41:25;;;;;;;;;;;;;;;32.87;50.59;100768.75;4975060;28;69152;-39
2022/03/03 11:43:59;;;;;;;;;;;;;;;32.85;50.29;100768.19;4973996;28;66586;-39
2022/03/03 11:46:44;;;;;;;;;;;;;;;32.79;50.70;100774.56;4979408;27;70711;-39
2022/03/03 11:49:17;;;;;;;;;;;;;;;32.80;50.73;100787.09;4975013;28;65687;-40
2022/03/03 11:51:51;;;;;;;;;;;;;;;32.81;50.65;100787.91;4976703;28;70491;-40
2022/03/03 11:54:26;;;;;;;;;;;;;;;32.77;50.72;100798.41;4973752;28;65320;-39
2022/03/03 11:57:08;;;;;;;;;;;;;;;32.74;50.53;100793.47;4971251;28;70425;-40
2022/03/03 11:59:42;;;;;;;;;;;;;;;32.72;50.64;100803.72;4974881;28;66748;-41
2022/03/03 12:02:15;;;;;;;;;;;;;;;32.69;50.61;100813.16;4975981;27;69301;-40
2022/03/03 12:04:46;;;;;;;;;;;;;;;32.69;50.82;100815.06;4970758;28;66498;-41
2022/03/03 12:07:28;;;;;;;;;;;;;;;32.64;50.94;100821.19;4973037;28;69822;-41
2022/03/03 12:09:59;;;;;;;;;;;;;;;32.64;51.23;100820.38;4973281;28;66414;-37
2022/03/03 12:12:31;;;;;;;;;;;;;;;32.64;51.19;100823.06;4971551;28;68917;-38
2022/03/03 12:15:04;;;;;;;;;;;;;;;32.64;51.53;100831.22;4971598;28;67481;-38
2022/03/03 12:17:35;;;;;;;;;;;;;;;32.60;51.57;100830.88;4973414;28;70202;-38
2022/03/03 12:20:23;;;;;;;;;;;;;;;32.59;51.41;100826.47;4969927;28;65489;-37
2022/03/03 12:23:16;;;;;;;;;;;;;;;32.52;51.42;100822.25;4959923;28;70350;-38
2022/03/03 12:25:59;;;;;;;;;;;;;;;32.59;50.98;100831.91;4970793;28;65933;-39
2022/03/03 12:28:45;;;;;;;;;;;;;;;32.61;51.11;100839.84;4972639;28;68541;-38
2022/03/03 12:31:26;;;;;;;;;;;;;;;32.60;50.31;100843.63;4971001;28;66530;-39
2022/03/03 12:33:59;;;;;;;;;;;;;;;32.59;51.11;100850.09;4970650;28;70285;-38
2022/03/03 12:36:36;;;;;;;;;;;;;;;32.57;51.16;100852.22;4967661;28;66173;-39
2022/03/03 12:39:09;;;;;;;;;;;;;;;32.57;50.06;100852.22;4967982;28;70204;-37
2022/03/03 12:41:41;;;;;;;;;;;;;;;32.53;50.60;100856.47;4967837;28;66366;-36
2022/03/03 12:44:13;;;;;;;;;;;;;;;32.53;50.15;100867.34;4970909;28;69973;-35
2022/03/03 12:46:44;;;;;;;;;;;;;;;32.56;51.78;100875.00;4966981;28;66674;-39
2022/03/03 12:49:14;;;;;;;;;;;;;;;32.62;51.32;100880.34;4973573;28;69857;-37
2022/03/03 12:51:46;;;;;;;;;;;;;;;32.27;50.64;100880.19;4972734;28;66551;-39
2022/03/03 12:54:17;;;;;;;;;;;;;;;32.00;50.22;100891.41;4977132;28;68951;-38
2022/03/03 12:56:59;;;;;;;;;;;;;;;31.91;48.79;100898.19;4973413;28;65740;-37